sensor_id;sensor_type;location;lat;lon;timestamp;pressure;altitude;pressure_sealevel;temperature;humidity
79663;BME280;69130;48.724;8.982;2023-06-04T00:00:41;96477.53;;;14.34;69.51
79663;BME280;69130;48.724;8.982;2023-06-04T00:03:07;96480.69;;;14.17;68.56
79663;BME280;69130;48.724;8.982;2023-06-04T00:05:32;96476.56;;;14.24;69.55
79663;BME280;69130;48.724;8.982;2023-06-04T00:07:57;96476.06;;;14.19;68.95
79663;BME280;69130;48.724;8.982;2023-06-04T00:10:23;96476.34;;;14.16;69.85
79663;BME280;69130;48.724;8.982;2023-06-04T00:12:48;96469.13;;;14.07;70.29
79663;BME280;69130;48.724;8.982;2023-06-04T00:15:14;96470.13;;;13.94;70.93
79663;BME280;69130;48.724;8.982;2023-06-04T00:17:41;96468.91;;;13.87;71.37
79663;BME280;69130;48.724;8.982;2023-06-04T00:20:07;96464.94;;;13.82;71.68
79663;BME280;69130;48.724;8.982;2023-06-04T00:22:32;96470.88;;;13.74;72.21
79663;BME280;69130;48.724;8.982;2023-06-04T00:24:58;96462.56;;;13.57;72.54
79663;BME280;69130;48.724;8.982;2023-06-04T00:27:23;96463.28;;;13.48;73.06
79663;BME280;69130;48.724;8.982;2023-06-04T00:29:48;96467.16;;;13.44;73.97
79663;BME280;69130;48.724;8.982;2023-06-04T00:32:14;96466.34;;;13.43;73.68
79663;BME280;69130;48.724;8.982;2023-06-04T00:34:39;96466.06;;;13.46;73.76
79663;BME280;69130;48.724;8.982;2023-06-04T00:37:05;96466.56;;;13.40;74.35
79663;BME280;69130;48.724;8.982;2023-06-04T00:39:31;96472.00;;;13.39;75.32
79663;BME280;69130;48.724;8.982;2023-06-04T00:41:56;96471.03;;;13.40;74.49
79663;BME280;69130;48.724;8.982;2023-06-04T00:44:22;96472.47;;;13.44;75.04
79663;BME280;69130;48.724;8.982;2023-06-04T00:46:50;96465.38;;;13.33;75.03
79663;BME280;69130;48.724;8.982;2023-06-04T00:49:16;96464.41;;;13.23;75.68
79663;BME280;69130;48.724;8.982;2023-06-04T00:51:41;96467.75;;;13.14;75.53
79663;BME280;69130;48.724;8.982;2023-06-04T00:54:07;96478.63;;;13.11;75.51
79663;BME280;69130;48.724;8.982;2023-06-04T00:56:35;96475.97;;;13.11;76.24
79663;BME280;69130;48.724;8.982;2023-06-04T00:59:02;96476.47;;;13.16;76.04
79663;BME280;69130;48.724;8.982;2023-06-04T01:01:39;96482.50;;;13.07;76.57
79663;BME280;69130;48.724;8.982;2023-06-04T01:04:18;96475.22;;;12.98;76.59
79663;BME280;69130;48.724;8.982;2023-06-04T01:06:50;96481.25;;;13.00;76.82
79663;BME280;69130;48.724;8.982;2023-06-04T01:09:16;96483.91;;;13.00;77.48
79663;BME280;69130;48.724;8.982;2023-06-04T01:11:41;96475.19;;;12.87;76.62
79663;BME280;69130;48.724;8.982;2023-06-04T01:14:08;96481.59;;;12.84;77.63
79663;BME280;69130;48.724;8.982;2023-06-04T01:16:42;96474.59;;;12.83;77.35
79663;BME280;69130;48.724;8.982;2023-06-04T01:19:29;96473.84;;;12.81;77.13
79663;BME280;69130;48.724;8.982;2023-06-04T01:22:04;96482.56;;;12.83;76.47
79663;BME280;69130;48.724;8.982;2023-06-04T01:24:35;96486.06;;;12.84;76.39
79663;BME280;69130;48.724;8.982;2023-06-04T01:27:03;96484.34;;;12.83;76.49
79663;BME280;69130;48.724;8.982;2023-06-04T01:29:30;96482.44;;;12.85;76.61
79663;BME280;69130;48.724;8.982;2023-06-04T01:31:58;96477.38;;;12.82;76.38
79663;BME280;69130;48.724;8.982;2023-06-04T01:34:23;96485.47;;;12.80;76.60
79663;BME280;69130;48.724;8.982;2023-06-04T01:36:49;96477.44;;;12.69;76.89
79663;BME280;69130;48.724;8.982;2023-06-04T01:39:14;96483.34;;;12.62;76.04
79663;BME280;69130;48.724;8.982;2023-06-04T01:41:39;96475.50;;;12.60;77.01
79663;BME280;69130;48.724;8.982;2023-06-04T01:44:05;96481.66;;;12.61;77.50
79663;BME280;69130;48.724;8.982;2023-06-04T01:46:30;96481.28;;;12.65;77.06
79663;BME280;69130;48.724;8.982;2023-06-04T01:48:56;96483.06;;;12.54;77.58
79663;BME280;69130;48.724;8.982;2023-06-04T01:51:21;96476.91;;;12.53;77.71
79663;BME280;69130;48.724;8.982;2023-06-04T01:53:46;96480.22;;;12.57;76.36
79663;BME280;69130;48.724;8.982;2023-06-04T01:56:12;96486.59;;;12.54;76.65
79663;BME280;69130;48.724;8.982;2023-06-04T01:58:38;96486.91;;;12.50;76.12
79663;BME280;69130;48.724;8.982;2023-06-04T02:01:03;96486.19;;;12.48;75.86
79663;BME280;69130;48.724;8.982;2023-06-04T02:03:30;96479.75;;;12.39;76.41
79663;BME280;69130;48.724;8.982;2023-06-04T02:06:02;96480.59;;;12.40;75.95
79663;BME280;69130;48.724;8.982;2023-06-04T02:08:28;96481.47;;;12.16;76.24
79663;BME280;69130;48.724;8.982;2023-06-04T02:10:55;96474.41;;;12.28;76.55
79663;BME280;69130;48.724;8.982;2023-06-04T02:13:20;96476.22;;;12.27;77.37
79663;BME280;69130;48.724;8.982;2023-06-04T02:15:46;96473.81;;;12.24;77.14
79663;BME280;69130;48.724;8.982;2023-06-04T02:18:19;96475.28;;;12.28;77.78
79663;BME280;69130;48.724;8.982;2023-06-04T02:20:46;96480.06;;;12.23;77.73
79663;BME280;69130;48.724;8.982;2023-06-04T02:23:14;96483.53;;;12.13;78.13
79663;BME280;69130;48.724;8.982;2023-06-04T02:25:40;96477.47;;;12.11;78.49
79663;BME280;69130;48.724;8.982;2023-06-04T02:28:06;96486.25;;;12.11;79.14
79663;BME280;69130;48.724;8.982;2023-06-04T02:30:31;96484.34;;;12.13;78.50
79663;BME280;69130;48.724;8.982;2023-06-04T02:32:57;96483.25;;;12.05;77.75
79663;BME280;69130;48.724;8.982;2023-06-04T02:35:26;96484.44;;;12.01;78.47
79663;BME280;69130;48.724;8.982;2023-06-04T02:37:52;96483.06;;;11.95;79.17
79663;BME280;69130;48.724;8.982;2023-06-04T02:40:17;96488.38;;;11.95;79.34
79663;BME280;69130;48.724;8.982;2023-06-04T02:42:42;96486.34;;;11.99;79.70
79663;BME280;69130;48.724;8.982;2023-06-04T02:45:09;96491.56;;;11.88;78.91
79663;BME280;69130;48.724;8.982;2023-06-04T02:47:35;96490.94;;;11.84;79.59
79663;BME280;69130;48.724;8.982;2023-06-04T02:50:00;96489.47;;;11.80;78.44
79663;BME280;69130;48.724;8.982;2023-06-04T02:52:25;96494.03;;;11.78;79.27
79663;BME280;69130;48.724;8.982;2023-06-04T02:54:51;96489.47;;;11.80;79.96
79663;BME280;69130;48.724;8.982;2023-06-04T02:57:17;96488.53;;;11.81;78.66
79663;BME280;69130;48.724;8.982;2023-06-04T02:59:42;96482.50;;;11.79;78.88
79663;BME280;69130;48.724;8.982;2023-06-04T03:02:07;96488.66;;;11.80;78.83
79663;BME280;69130;48.724;8.982;2023-06-04T03:04:33;96491.94;;;11.71;79.10
79663;BME280;69130;48.724;8.982;2023-06-04T03:07:01;96484.84;;;11.59;79.96
79663;BME280;69130;48.724;8.982;2023-06-04T03:09:27;96488.34;;;11.59;80.61
79663;BME280;69130;48.724;8.982;2023-06-04T03:11:53;96489.63;;;11.54;80.38
79663;BME280;69130;48.724;8.982;2023-06-04T03:14:18;96496.31;;;11.47;80.11
79663;BME280;69130;48.724;8.982;2023-06-04T03:16:44;96495.38;;;11.48;81.02
79663;BME280;69130;48.724;8.982;2023-06-04T03:19:10;96493.91;;;11.43;80.87
79663;BME280;69130;48.724;8.982;2023-06-04T03:21:36;96491.75;;;11.49;81.59
79663;BME280;69130;48.724;8.982;2023-06-04T03:24:05;96494.53;;;11.47;80.27
79663;BME280;69130;48.724;8.982;2023-06-04T03:26:30;96494.31;;;11.50;80.15
79663;BME280;69130;48.724;8.982;2023-06-04T03:28:56;96500.88;;;11.44;79.79
79663;BME280;69130;48.724;8.982;2023-06-04T03:31:21;96500.50;;;11.38;80.03
79663;BME280;69130;48.724;8.982;2023-06-04T03:33:46;96504.94;;;11.37;81.32
79663;BME280;69130;48.724;8.982;2023-06-04T03:36:12;96509.59;;;11.34;81.51
79663;BME280;69130;48.724;8.982;2023-06-04T03:38:37;96509.38;;;11.37;82.30
79663;BME280;69130;48.724;8.982;2023-06-04T03:41:02;96520.31;;;11.32;81.70
79663;BME280;69130;48.724;8.982;2023-06-04T03:43:28;96510.22;;;11.37;82.00
79663;BME280;69130;48.724;8.982;2023-06-04T03:45:53;96524.84;;;11.43;82.43
79663;BME280;69130;48.724;8.982;2023-06-04T03:48:19;96523.25;;;11.40;82.22
79663;BME280;69130;48.724;8.982;2023-06-04T03:50:44;96519.09;;;11.49;82.55
79663;BME280;69130;48.724;8.982;2023-06-04T03:53:11;96517.00;;;11.41;81.96
79663;BME280;69130;48.724;8.982;2023-06-04T03:55:36;96509.06;;;11.41;82.32
79663;BME280;69130;48.724;8.982;2023-06-04T03:58:02;96514.78;;;11.48;83.08
79663;BME280;69130;48.724;8.982;2023-06-04T04:00:28;96513.31;;;11.44;82.76
79663;BME280;69130;48.724;8.982;2023-06-04T04:02:53;96512.56;;;11.42;82.53
79663;BME280;69130;48.724;8.982;2023-06-04T04:05:18;96521.03;;;11.47;82.86
79663;BME280;69130;48.724;8.982;2023-06-04T04:07:44;96515.41;;;11.52;82.56
79663;BME280;69130;48.724;8.982;2023-06-04T04:10:10;96517.19;;;11.51;82.83
79663;BME280;69130;48.724;8.982;2023-06-04T04:12:35;96514.22;;;11.56;82.57
79663;BME280;69130;48.724;8.982;2023-06-04T04:15:01;96519.09;;;11.62;82.43
79663;BME280;69130;48.724;8.982;2023-06-04T04:17:26;96521.31;;;11.55;82.26
79663;BME280;69130;48.724;8.982;2023-06-04T04:19:51;96529.38;;;11.54;81.67
79663;BME280;69130;48.724;8.982;2023-06-04T04:22:17;96530.13;;;11.56;82.43
79663;BME280;69130;48.724;8.982;2023-06-04T04:24:43;96540.09;;;11.52;81.74
79663;BME280;69130;48.724;8.982;2023-06-04T04:27:08;96536.06;;;11.59;81.46
79663;BME280;69130;48.724;8.982;2023-06-04T04:29:36;96525.44;;;11.59;81.24
79663;BME280;69130;48.724;8.982;2023-06-04T04:32:02;96524.16;;;11.65;81.80
79663;BME280;69130;48.724;8.982;2023-06-04T04:34:35;96536.50;;;11.66;82.28
79663;BME280;69130;48.724;8.982;2023-06-04T04:37:02;96537.00;;;11.71;82.46
79663;BME280;69130;48.724;8.982;2023-06-04T04:39:28;96545.38;;;11.77;82.36
79663;BME280;69130;48.724;8.982;2023-06-04T04:41:54;96538.16;;;11.79;82.05
79663;BME280;69130;48.724;8.982;2023-06-04T04:44:20;96536.88;;;11.85;81.84
79663;BME280;69130;48.724;8.982;2023-06-04T04:46:47;96549.81;;;11.89;81.50
79663;BME280;69130;48.724;8.982;2023-06-04T04:49:12;96538.53;;;11.98;81.91
79663;BME280;69130;48.724;8.982;2023-06-04T04:51:38;96541.25;;;12.09;80.71
79663;BME280;69130;48.724;8.982;2023-06-04T04:54:03;96536.03;;;12.08;80.32
79663;BME280;69130;48.724;8.982;2023-06-04T04:56:28;96540.63;;;12.06;78.99
79663;BME280;69130;48.724;8.982;2023-06-04T04:58:55;96544.63;;;12.11;80.37
79663;BME280;69130;48.724;8.982;2023-06-04T05:01:21;96545.66;;;12.21;80.41
79663;BME280;69130;48.724;8.982;2023-06-04T05:03:46;96550.50;;;12.27;79.89
79663;BME280;69130;48.724;8.982;2023-06-04T05:06:12;96546.09;;;12.39;80.07
79663;BME280;69130;48.724;8.982;2023-06-04T05:08:38;96551.94;;;12.44;79.58
79663;BME280;69130;48.724;8.982;2023-06-04T05:11:03;96554.13;;;12.50;79.16
79663;BME280;69130;48.724;8.982;2023-06-04T05:13:28;96559.56;;;12.49;78.94
79663;BME280;69130;48.724;8.982;2023-06-04T05:15:54;96559.31;;;12.52;77.74
79663;BME280;69130;48.724;8.982;2023-06-04T05:18:19;96566.13;;;12.67;78.20
79663;BME280;69130;48.724;8.982;2023-06-04T05:21:03;96568.59;;;12.81;77.64
79663;BME280;69130;48.724;8.982;2023-06-04T05:23:28;96562.47;;;12.91;77.03
79663;BME280;69130;48.724;8.982;2023-06-04T05:25:59;96571.78;;;12.97;76.66
79663;BME280;69130;48.724;8.982;2023-06-04T05:28:24;96567.81;;;13.02;74.54
79663;BME280;69130;48.724;8.982;2023-06-04T05:30:51;96573.09;;;13.15;74.17
79663;BME280;69130;48.724;8.982;2023-06-04T05:33:20;96568.41;;;13.30;74.56
79663;BME280;69130;48.724;8.982;2023-06-04T05:35:49;96575.41;;;13.42;73.12
79663;BME280;69130;48.724;8.982;2023-06-04T05:38:14;96572.41;;;13.46;73.15
79663;BME280;69130;48.724;8.982;2023-06-04T05:40:44;96566.63;;;13.52;73.10
79663;BME280;69130;48.724;8.982;2023-06-04T05:43:10;96570.38;;;13.61;72.88
79663;BME280;69130;48.724;8.982;2023-06-04T05:45:36;96569.41;;;13.73;71.55
79663;BME280;69130;48.724;8.982;2023-06-04T05:48:01;96579.56;;;13.79;72.39
79663;BME280;69130;48.724;8.982;2023-06-04T05:50:27;96578.47;;;13.81;72.14
79663;BME280;69130;48.724;8.982;2023-06-04T05:52:53;96570.97;;;13.97;72.13
79663;BME280;69130;48.724;8.982;2023-06-04T05:55:19;96580.03;;;14.06;70.84
79663;BME280;69130;48.724;8.982;2023-06-04T05:57:44;96579.03;;;14.18;70.59
79663;BME280;69130;48.724;8.982;2023-06-04T06:00:10;96581.56;;;14.31;69.62
79663;BME280;69130;48.724;8.982;2023-06-04T06:02:36;96577.56;;;14.47;67.32
79663;BME280;69130;48.724;8.982;2023-06-04T06:05:03;96582.00;;;14.58;66.89
79663;BME280;69130;48.724;8.982;2023-06-04T06:07:31;96587.78;;;14.63;64.25
79663;BME280;69130;48.724;8.982;2023-06-04T06:09:57;96587.84;;;14.83;63.94
79663;BME280;69130;48.724;8.982;2023-06-04T06:12:22;96593.75;;;14.87;62.58
79663;BME280;69130;48.724;8.982;2023-06-04T06:14:47;96589.78;;;15.13;61.55
79663;BME280;69130;48.724;8.982;2023-06-04T06:17:13;96592.56;;;15.32;59.83
79663;BME280;69130;48.724;8.982;2023-06-04T06:19:39;96590.47;;;15.36;59.99
79663;BME280;69130;48.724;8.982;2023-06-04T06:22:04;96588.81;;;15.55;58.35
79663;BME280;69130;48.724;8.982;2023-06-04T06:24:32;96598.44;;;15.67;58.47
79663;BME280;69130;48.724;8.982;2023-06-04T06:26:58;96600.84;;;15.70;58.16
79663;BME280;69130;48.724;8.982;2023-06-04T06:29:23;96606.66;;;15.85;57.99
79663;BME280;69130;48.724;8.982;2023-06-04T06:31:48;96597.47;;;16.08;56.46
79663;BME280;69130;48.724;8.982;2023-06-04T06:34:14;96602.09;;;16.06;56.03
79663;BME280;69130;48.724;8.982;2023-06-04T06:36:39;96601.50;;;16.33;55.76
79663;BME280;69130;48.724;8.982;2023-06-04T06:39:05;96606.16;;;16.31;56.81
79663;BME280;69130;48.724;8.982;2023-06-04T06:41:30;96612.75;;;16.27;57.82
79663;BME280;69130;48.724;8.982;2023-06-04T06:43:56;96604.94;;;16.14;58.84
79663;BME280;69130;48.724;8.982;2023-06-04T06:46:22;96601.47;;;16.14;57.59
79663;BME280;69130;48.724;8.982;2023-06-04T06:48:48;96604.00;;;16.25;57.43
79663;BME280;69130;48.724;8.982;2023-06-04T06:51:16;96605.91;;;16.43;57.76
79663;BME280;69130;48.724;8.982;2023-06-04T06:53:42;96608.63;;;16.53;56.66
79663;BME280;69130;48.724;8.982;2023-06-04T06:56:08;96609.34;;;16.55;57.05
79663;BME280;69130;48.724;8.982;2023-06-04T06:58:36;96604.16;;;16.63;54.93
79663;BME280;69130;48.724;8.982;2023-06-04T07:01:02;96606.16;;;16.90;55.75
79663;BME280;69130;48.724;8.982;2023-06-04T07:03:27;96607.72;;;17.50;56.73
79663;BME280;69130;48.724;8.982;2023-06-04T07:05:53;96603.38;;;17.95;53.76
79663;BME280;69130;48.724;8.982;2023-06-04T07:08:18;96605.56;;;18.46;53.85
79663;BME280;69130;48.724;8.982;2023-06-04T07:10:47;96604.16;;;18.69;51.85
79663;BME280;69130;48.724;8.982;2023-06-04T07:13:12;96604.50;;;19.01;51.85
79663;BME280;69130;48.724;8.982;2023-06-04T07:15:37;96605.38;;;19.37;48.52
79663;BME280;69130;48.724;8.982;2023-06-04T07:18:03;96613.09;;;19.57;49.94
79663;BME280;69130;48.724;8.982;2023-06-04T07:20:28;96608.47;;;19.93;49.01
79663;BME280;69130;48.724;8.982;2023-06-04T07:22:54;96610.25;;;20.28;49.07
79663;BME280;69130;48.724;8.982;2023-06-04T07:25:19;96606.00;;;20.59;47.09
79663;BME280;69130;48.724;8.982;2023-06-04T07:27:45;96603.84;;;20.70;45.91
79663;BME280;69130;48.724;8.982;2023-06-04T07:30:10;96612.56;;;21.06;46.87
79663;BME280;69130;48.724;8.982;2023-06-04T07:32:36;96621.84;;;21.36;45.64
79663;BME280;69130;48.724;8.982;2023-06-04T07:35:02;96611.94;;;21.44;44.64
79663;BME280;69130;48.724;8.982;2023-06-04T07:37:28;96612.78;;;21.69;45.23
79663;BME280;69130;48.724;8.982;2023-06-04T07:39:53;96612.78;;;21.93;44.81
79663;BME280;69130;48.724;8.982;2023-06-04T07:42:18;96604.00;;;22.15;45.36
79663;BME280;69130;48.724;8.982;2023-06-04T07:44:44;96609.66;;;22.36;45.32
79663;BME280;69130;48.724;8.982;2023-06-04T07:47:09;96619.31;;;22.78;42.49
79663;BME280;69130;48.724;8.982;2023-06-04T07:49:35;96616.56;;;22.86;42.00
79663;BME280;69130;48.724;8.982;2023-06-04T07:52:00;96609.78;;;23.20;39.84
79663;BME280;69130;48.724;8.982;2023-06-04T07:54:26;96611.75;;;23.26;42.86
79663;BME280;69130;48.724;8.982;2023-06-04T07:56:51;96604.31;;;23.74;42.67
79663;BME280;69130;48.724;8.982;2023-06-04T07:59:22;96614.81;;;24.14;40.18
79663;BME280;69130;48.724;8.982;2023-06-04T08:01:49;96597.19;;;24.47;40.04
79663;BME280;69130;48.724;8.982;2023-06-04T08:04:15;96596.00;;;24.64;39.80
79663;BME280;69130;48.724;8.982;2023-06-04T08:06:41;96594.13;;;24.79;39.09
79663;BME280;69130;48.724;8.982;2023-06-04T08:09:07;96601.38;;;24.93;39.84
79663;BME280;69130;48.724;8.982;2023-06-04T08:11:35;96599.16;;;25.18;39.01
79663;BME280;69130;48.724;8.982;2023-06-04T08:14:00;96594.34;;;25.14;38.66
79663;BME280;69130;48.724;8.982;2023-06-04T08:16:26;96595.78;;;24.95;36.36
79663;BME280;69130;48.724;8.982;2023-06-04T08:18:51;96597.91;;;25.35;38.34
79663;BME280;69130;48.724;8.982;2023-06-04T08:21:25;96586.00;;;25.51;37.83
79663;BME280;69130;48.724;8.982;2023-06-04T08:23:50;96592.31;;;25.58;37.75
79663;BME280;69130;48.724;8.982;2023-06-04T08:26:16;96593.47;;;25.70;36.96
79663;BME280;69130;48.724;8.982;2023-06-04T08:28:41;96593.00;;;25.87;37.04
79663;BME280;69130;48.724;8.982;2023-06-04T08:31:06;96596.53;;;26.09;36.95
79663;BME280;69130;48.724;8.982;2023-06-04T08:33:32;96605.09;;;26.06;37.05
79663;BME280;69130;48.724;8.982;2023-06-04T08:35:57;96593.88;;;26.43;37.09
79663;BME280;69130;48.724;8.982;2023-06-04T08:38:22;96595.84;;;26.62;34.54
79663;BME280;69130;48.724;8.982;2023-06-04T08:40:52;96602.78;;;26.99;34.80
79663;BME280;69130;48.724;8.982;2023-06-04T08:43:18;96604.38;;;27.34;34.50
79663;BME280;69130;48.724;8.982;2023-06-04T08:45:49;96611.09;;;27.38;31.65
79663;BME280;69130;48.724;8.982;2023-06-04T08:48:14;96612.53;;;27.34;33.33
79663;BME280;69130;48.724;8.982;2023-06-04T08:50:42;96607.25;;;27.26;32.61
79663;BME280;69130;48.724;8.982;2023-06-04T08:53:11;96611.56;;;27.68;31.50
79663;BME280;69130;48.724;8.982;2023-06-04T08:55:38;96609.25;;;27.85;31.31
79663;BME280;69130;48.724;8.982;2023-06-04T08:58:05;96619.34;;;28.10;30.79
79663;BME280;69130;48.724;8.982;2023-06-04T09:00:33;96616.16;;;27.81;29.88
79663;BME280;69130;48.724;8.982;2023-06-04T09:03:01;96622.59;;;27.53;29.87
79663;BME280;69130;48.724;8.982;2023-06-04T09:05:29;96623.31;;;27.95;30.68
79663;BME280;69130;48.724;8.982;2023-06-04T09:08:00;96625.22;;;28.07;30.80
79663;BME280;69130;48.724;8.982;2023-06-04T09:10:26;96624.38;;;28.13;29.72
79663;BME280;69130;48.724;8.982;2023-06-04T09:12:56;96628.97;;;28.26;28.96
79663;BME280;69130;48.724;8.982;2023-06-04T09:15:22;96630.66;;;28.14;29.82
79663;BME280;69130;48.724;8.982;2023-06-04T09:17:48;96631.03;;;27.85;29.15
79663;BME280;69130;48.724;8.982;2023-06-04T09:20:23;96635.41;;;27.73;29.48
79663;BME280;69130;48.724;8.982;2023-06-04T09:22:49;96631.03;;;27.78;30.53
79663;BME280;69130;48.724;8.982;2023-06-04T09:25:23;96626.56;;;27.44;29.71
79663;BME280;69130;48.724;8.982;2023-06-04T09:27:50;96643.47;;;27.33;29.74
79663;BME280;69130;48.724;8.982;2023-06-04T09:30:15;96636.72;;;26.75;30.57
79663;BME280;69130;48.724;8.982;2023-06-04T09:32:41;96640.97;;;27.38;32.16
79663;BME280;69130;48.724;8.982;2023-06-04T09:37:40;96642.56;;;27.80;30.29
79663;BME280;69130;48.724;8.982;2023-06-04T09:40:06;96642.53;;;27.87;31.06
79663;BME280;69130;48.724;8.982;2023-06-04T09:42:45;96639.47;;;28.09;30.92
79663;BME280;69130;48.724;8.982;2023-06-04T09:45:12;96636.09;;;28.14;28.58
79663;BME280;69130;48.724;8.982;2023-06-04T09:47:43;96638.97;;;27.93;29.37
79663;BME280;69130;48.724;8.982;2023-06-04T09:50:11;96644.63;;;27.85;30.00
79663;BME280;69130;48.724;8.982;2023-06-04T09:52:37;96646.50;;;27.84;31.54
79663;BME280;69130;48.724;8.982;2023-06-04T09:55:15;96640.72;;;28.13;30.83
79663;BME280;69130;48.724;8.982;2023-06-04T09:57:46;96638.19;;;27.99;29.33
79663;BME280;69130;48.724;8.982;2023-06-04T10:00:12;96640.84;;;27.92;30.89
79663;BME280;69130;48.724;8.982;2023-06-04T10:02:38;96635.41;;;27.79;29.16
79663;BME280;69130;48.724;8.982;2023-06-04T10:05:04;96632.72;;;27.86;31.41
79663;BME280;69130;48.724;8.982;2023-06-04T10:07:33;96640.06;;;28.18;32.10
79663;BME280;69130;48.724;8.982;2023-06-04T10:10:01;96636.09;;;28.40;34.09
79663;BME280;69130;48.724;8.982;2023-06-04T10:12:31;96635.06;;;28.61;31.86
79663;BME280;69130;48.724;8.982;2023-06-04T10:15:02;96634.66;;;28.57;31.35
79663;BME280;69130;48.724;8.982;2023-06-04T10:17:30;96626.47;;;28.05;32.03
79663;BME280;69130;48.724;8.982;2023-06-04T10:19:58;96629.81;;;28.07;30.90
79663;BME280;69130;48.724;8.982;2023-06-04T10:22:25;96629.81;;;28.33;30.90
79663;BME280;69130;48.724;8.982;2023-06-04T10:24:50;96622.28;;;28.02;29.30
79663;BME280;69130;48.724;8.982;2023-06-04T10:27:19;96629.31;;;27.57;29.70
79663;BME280;69130;48.724;8.982;2023-06-04T10:29:46;96621.50;;;27.35;30.18
79663;BME280;69130;48.724;8.982;2023-06-04T10:32:11;96630.53;;;27.42;32.76
79663;BME280;69130;48.724;8.982;2023-06-04T10:34:37;96627.22;;;27.59;30.77
79663;BME280;69130;48.724;8.982;2023-06-04T10:37:02;96622.66;;;27.86;32.69
79663;BME280;69130;48.724;8.982;2023-06-04T10:39:29;96613.72;;;28.05;32.23
79663;BME280;69130;48.724;8.982;2023-06-04T10:42:02;96621.25;;;28.23;30.94
79663;BME280;69130;48.724;8.982;2023-06-04T10:44:29;96620.97;;;27.79;29.31
79663;BME280;69130;48.724;8.982;2023-06-04T10:46:56;96616.59;;;27.78;31.46
79663;BME280;69130;48.724;8.982;2023-06-04T10:49:29;96617.28;;;28.25;31.68
79663;BME280;69130;48.724;8.982;2023-06-04T10:51:55;96614.50;;;27.93;31.09
79663;BME280;69130;48.724;8.982;2023-06-04T10:54:28;96610.94;;;27.79;30.65
79663;BME280;69130;48.724;8.982;2023-06-04T10:56:55;96624.38;;;28.07;33.19
79663;BME280;69130;48.724;8.982;2023-06-04T10:59:20;96622.88;;;27.85;29.21
79663;BME280;69130;48.724;8.982;2023-06-04T11:01:46;96619.38;;;28.04;32.30
79663;BME280;69130;48.724;8.982;2023-06-04T11:04:25;96627.47;;;27.91;31.33
79663;BME280;69130;48.724;8.982;2023-06-04T11:07:05;96610.34;;;28.23;31.06
79663;BME280;69130;48.724;8.982;2023-06-04T11:09:35;96613.66;;;27.92;29.85
79663;BME280;69130;48.724;8.982;2023-06-04T11:12:01;96609.91;;;27.93;33.20
79663;BME280;69130;48.724;8.982;2023-06-04T11:14:26;96609.66;;;27.55;32.61
79663;BME280;69130;48.724;8.982;2023-06-04T11:16:52;96598.78;;;27.75;32.30
79663;BME280;69130;48.724;8.982;2023-06-04T11:19:17;96618.22;;;27.52;32.27
79663;BME280;69130;48.724;8.982;2023-06-04T11:21:43;96617.41;;;27.65;33.32
79663;BME280;69130;48.724;8.982;2023-06-04T11:24:12;96608.41;;;27.71;31.42
79663;BME280;69130;48.724;8.982;2023-06-04T11:26:37;96615.53;;;27.72;32.21
79663;BME280;69130;48.724;8.982;2023-06-04T11:29:10;96605.72;;;27.78;33.44
79663;BME280;69130;48.724;8.982;2023-06-04T11:31:45;96603.91;;;27.31;31.88
79663;BME280;69130;48.724;8.982;2023-06-04T11:34:22;96606.19;;;27.27;31.28
79663;BME280;69130;48.724;8.982;2023-06-04T11:36:47;96616.16;;;27.68;32.19
79663;BME280;69130;48.724;8.982;2023-06-04T11:39:14;96612.56;;;27.54;31.31
79663;BME280;69130;48.724;8.982;2023-06-04T11:41:40;96611.34;;;27.83;32.65
79663;BME280;69130;48.724;8.982;2023-06-04T11:44:06;96611.72;;;27.53;32.05
79663;BME280;69130;48.724;8.982;2023-06-04T11:46:32;96607.13;;;27.60;31.45
79663;BME280;69130;48.724;8.982;2023-06-04T11:48:58;96606.09;;;27.48;30.36
79663;BME280;69130;48.724;8.982;2023-06-04T11:51:24;96607.38;;;27.79;34.69
79663;BME280;69130;48.724;8.982;2023-06-04T11:53:49;96611.41;;;27.96;30.96
79663;BME280;69130;48.724;8.982;2023-06-04T11:56:15;96600.06;;;27.79;31.44
79663;BME280;69130;48.724;8.982;2023-06-04T11:58:42;96603.88;;;27.98;31.41
79663;BME280;69130;48.724;8.982;2023-06-04T12:01:08;96608.63;;;27.83;30.13
79663;BME280;69130;48.724;8.982;2023-06-04T12:03:41;96605.91;;;27.70;30.60
79663;BME280;69130;48.724;8.982;2023-06-04T12:08:52;96592.69;;;27.40;32.02
79663;BME280;69130;48.724;8.982;2023-06-04T12:11:28;96605.06;;;27.56;31.37
79663;BME280;69130;48.724;8.982;2023-06-04T12:13:57;96590.81;;;27.60;31.09
79663;BME280;69130;48.724;8.982;2023-06-04T12:16:23;96585.19;;;27.75;30.07
79663;BME280;69130;48.724;8.982;2023-06-04T12:18:49;96583.09;;;27.64;30.40
79663;BME280;69130;48.724;8.982;2023-06-04T12:21:23;96589.81;;;27.68;30.70
79663;BME280;69130;48.724;8.982;2023-06-04T12:26:33;96581.66;;;27.68;29.63
79663;BME280;69130;48.724;8.982;2023-06-04T12:29:10;96577.25;;;27.67;29.51
79663;BME280;69130;48.724;8.982;2023-06-04T12:31:37;96591.47;;;27.69;31.10
79663;BME280;69130;48.724;8.982;2023-06-04T12:34:03;96585.41;;;27.93;31.05
79663;BME280;69130;48.724;8.982;2023-06-04T12:36:28;96588.53;;;27.71;29.26
79663;BME280;69130;48.724;8.982;2023-06-04T12:38:58;96579.53;;;27.63;30.57
79663;BME280;69130;48.724;8.982;2023-06-04T12:41:27;96591.44;;;27.49;28.26
79663;BME280;69130;48.724;8.982;2023-06-04T12:43:53;96586.84;;;27.50;29.67
79663;BME280;69130;48.724;8.982;2023-06-04T12:46:19;96583.50;;;27.48;29.86
79663;BME280;69130;48.724;8.982;2023-06-04T12:48:45;96588.53;;;27.57;30.66
79663;BME280;69130;48.724;8.982;2023-06-04T12:51:11;96586.22;;;27.61;30.39
79663;BME280;69130;48.724;8.982;2023-06-04T12:53:40;96593.75;;;27.52;28.59
79663;BME280;69130;48.724;8.982;2023-06-04T12:56:06;96594.09;;;27.30;29.06
79663;BME280;69130;48.724;8.982;2023-06-04T12:58:32;96581.84;;;27.60;29.21
79663;BME280;69130;48.724;8.982;2023-06-04T13:00:57;96566.84;;;27.10;29.34
79663;BME280;69130;48.724;8.982;2023-06-04T13:03:23;96568.03;;;27.55;30.53
79663;BME280;69130;48.724;8.982;2023-06-04T13:05:48;96567.59;;;27.51;29.21